createdAt,value
2022-10-21T00:02:11.891Z,29.15
2022-10-21T00:04:41.656Z,25.87
2022-10-21T00:07:11.705Z,35.65
2022-10-21T00:09:41.466Z,29.33
2022-10-21T00:12:12.080Z,33.00
2022-10-21T00:14:41.837Z,26.30
2022-10-21T00:17:11.565Z,35.33
2022-10-21T00:19:42.684Z,25.72
2022-10-21T00:22:12.765Z,31.05
2022-10-21T00:24:42.597Z,27.17
2022-10-21T00:27:12.640Z,32.75
2022-10-21T00:29:42.693Z,35.35
2022-10-21T00:32:12.441Z,32.73
2022-10-21T00:34:43.269Z,29.43
2022-10-21T00:37:13.895Z,26.47
2022-10-21T00:39:43.709Z,30.30
2022-10-21T00:42:19.225Z,28.10
2022-10-21T00:45:09.522Z,35.20
2022-10-21T00:47:51.215Z,32.03
2022-10-21T00:50:53.544Z,28.07
2022-10-21T00:53:24.238Z,26.87
2022-10-21T00:55:57.245Z,28.73
2022-10-21T00:58:29.541Z,31.20
2022-10-21T01:01:01.617Z,28.57
2022-10-21T01:03:32.896Z,32.75
2022-10-21T01:06:05.584Z,30.03
2022-10-21T01:08:36.183Z,30.65
2022-10-21T01:11:08.429Z,35.53
2022-10-21T01:13:50.037Z,32.00
2022-10-21T01:16:30.980Z,32.45
2022-10-21T01:19:15.359Z,27.33
2022-10-21T01:22:06.028Z,34.17
2022-10-21T01:24:50.644Z,29.93
2022-10-21T01:27:26.727Z,31.23
2022-10-21T01:30:10.726Z,33.67
2022-10-21T01:33:01.651Z,31.33
2022-10-21T01:35:54.770Z,29.72
2022-10-21T01:38:27.314Z,30.97
2022-10-21T01:41:17.918Z,34.40
2022-10-21T01:44:02.528Z,34.77
2022-10-21T01:46:38.171Z,31.80
2022-10-21T01:49:16.682Z,32.10
2022-10-21T01:51:47.072Z,33.50
2022-10-21T01:54:25.636Z,30.30
2022-10-21T01:56:57.334Z,34.30
2022-10-21T01:59:29.658Z,36.40
2022-10-21T02:02:02.818Z,29.63
2022-10-21T02:04:34.860Z,31.35
2022-10-21T02:07:05.213Z,29.75
2022-10-21T02:09:34.962Z,36.10
2022-10-21T02:12:07.420Z,32.23
2022-10-21T02:14:45.511Z,36.93
2022-10-21T02:17:18.931Z,34.43
2022-10-21T02:19:48.713Z,35.55
2022-10-21T02:22:21.583Z,34.30
2022-10-21T02:25:03.070Z,35.90
2022-10-21T02:27:33.072Z,40.17
2022-10-21T02:30:03.345Z,38.50
2022-10-21T02:32:41.871Z,36.67
2022-10-21T02:35:26.479Z,39.67
2022-10-21T02:38:04.450Z,33.80
2022-10-21T02:40:40.057Z,44.67
2022-10-21T02:43:15.637Z,37.93
2022-10-21T02:45:48.318Z,38.75
2022-10-21T02:48:18.210Z,42.73
2022-10-21T02:50:47.709Z,43.10
2022-10-21T02:53:17.843Z,45.35
2022-10-21T02:55:49.235Z,35.57
2022-10-21T02:58:19.014Z,37.77
2022-10-21T03:00:48.841Z,41.30
2022-10-21T03:03:18.763Z,41.90
2022-10-21T03:05:48.746Z,38.90
2022-10-21T03:08:18.473Z,37.53
2022-10-21T03:10:53.044Z,37.63
2022-10-21T03:13:22.622Z,40.47
2022-10-21T03:15:52.839Z,42.83
2022-10-21T03:18:22.605Z,41.98
2022-10-21T03:20:53.338Z,43.57
2022-10-21T03:23:23.096Z,43.27
2022-10-21T03:25:52.870Z,39.80
2022-10-21T03:28:22.660Z,38.43
2022-10-21T03:30:52.408Z,37.87
2022-10-21T03:33:22.188Z,40.93
2022-10-21T03:35:51.995Z,38.43
2022-10-21T03:38:21.827Z,38.53
2022-10-21T03:40:52.298Z,38.73
2022-10-21T03:43:22.065Z,34.93
2022-10-21T03:45:51.835Z,37.57
2022-10-21T03:48:21.587Z,36.25
2022-10-21T03:50:52.105Z,39.77
2022-10-21T03:53:38.127Z,42.10
2022-10-21T03:55:56.681Z,39.23
2022-10-21T03:58:25.522Z,40.77
2022-10-21T04:00:56.206Z,38.17
2022-10-21T04:03:25.959Z,38.30
2022-10-21T04:05:55.786Z,34.90
2022-10-21T04:08:25.520Z,38.57
2022-10-21T04:10:56.816Z,43.97
2022-10-21T04:13:26.638Z,41.23
2022-10-21T04:15:58.929Z,40.90
2022-10-21T04:18:28.690Z,43.87
2022-10-21T04:20:58.440Z,37.70
2022-10-21T04:23:28.212Z,42.53
2022-10-21T04:25:57.998Z,41.60
2022-10-21T04:28:27.519Z,36.35
2022-10-21T04:30:57.279Z,39.87
2022-10-21T04:33:27.626Z,33.93
2022-10-21T04:35:59.082Z,40.12
2022-10-21T04:38:30.514Z,36.03
2022-10-21T04:41:02.855Z,37.10
2022-10-21T04:43:32.924Z,34.47
2022-10-21T04:46:02.693Z,35.93
2022-10-21T04:48:32.480Z,39.67
2022-10-21T04:51:02.239Z,31.83
2022-10-21T04:53:31.988Z,39.23
2022-10-21T04:56:01.819Z,36.20
2022-10-21T04:58:31.655Z,37.77
2022-10-21T05:01:01.509Z,39.13
2022-10-21T05:03:31.979Z,34.88
2022-10-21T05:06:01.702Z,33.70
2022-10-21T05:08:31.551Z,34.83
2022-10-21T05:11:02.349Z,35.37
2022-10-21T05:13:33.439Z,35.50
2022-10-21T05:16:04.737Z,36.03
2022-10-21T05:18:34.474Z,37.77
2022-10-21T05:21:04.503Z,34.33
2022-10-21T05:23:34.550Z,32.48
2022-10-21T05:26:07.056Z,35.48
2022-10-21T05:28:37.547Z,33.70
2022-10-21T05:31:07.303Z,31.47
2022-10-21T05:33:37.121Z,33.70
2022-10-21T05:36:08.591Z,43.60
2022-10-21T05:38:38.343Z,33.10
2022-10-21T05:41:08.107Z,39.30
2022-10-21T05:43:38.805Z,33.87
2022-10-21T05:46:09.969Z,33.53
2022-10-21T05:48:39.864Z,37.23
2022-10-21T05:51:09.601Z,37.87
2022-10-21T05:53:39.811Z,32.50
2022-10-21T05:56:12.134Z,34.30
2022-10-21T05:58:41.867Z,38.20
2022-10-21T06:01:12.297Z,32.33
2022-10-21T06:03:42.094Z,35.27
2022-10-21T06:06:11.757Z,34.90
2022-10-21T06:08:41.399Z,33.00
2022-10-21T06:11:13.926Z,36.43
2022-10-21T06:13:44.532Z,32.70
2022-10-21T06:16:15.127Z,38.25
2022-10-21T06:18:45.119Z,38.60
2022-10-21T06:21:14.884Z,29.43
2022-10-21T06:23:44.774Z,27.07
2022-10-21T06:26:16.773Z,30.23
2022-10-21T06:28:46.497Z,34.33
2022-10-21T06:31:18.560Z,28.80
2022-10-21T06:33:48.790Z,30.37
2022-10-21T06:36:18.747Z,32.97
2022-10-21T06:38:48.578Z,35.27
2022-10-21T06:41:18.872Z,33.83
2022-10-21T06:43:48.612Z,29.63
2022-10-21T06:46:18.719Z,31.12
2022-10-21T06:48:48.249Z,26.40
2022-10-21T06:51:21.036Z,32.37
2022-10-21T06:53:56.543Z,30.23
2022-10-21T06:56:27.129Z,32.87
2022-10-21T06:58:58.989Z,30.93
2022-10-21T07:01:48.326Z,27.30
2022-10-21T07:04:10.796Z,45.20
2022-10-21T07:06:40.608Z,27.83
2022-10-21T07:09:10.933Z,32.17
2022-10-21T07:11:40.815Z,32.87
2022-10-21T07:14:13.264Z,34.54
2022-10-21T07:16:43.013Z,31.53
2022-10-21T07:19:12.753Z,30.77
2022-10-21T07:21:42.613Z,27.77
2022-10-21T07:24:12.197Z,29.57
2022-10-21T07:26:42.094Z,26.80
2022-10-21T07:29:11.875Z,27.57
2022-10-21T07:31:41.808Z,33.53
2022-10-21T07:34:13.375Z,28.40
2022-10-21T07:36:47.685Z,30.13
2022-10-21T07:39:19.005Z,27.83
2022-10-21T07:41:51.436Z,31.20
2022-10-21T07:44:22.717Z,26.10
2022-10-21T07:46:54.121Z,27.07
2022-10-21T07:49:25.537Z,25.80
2022-10-21T07:51:55.296Z,30.00
2022-10-21T07:54:25.162Z,25.12
2022-10-21T07:56:54.911Z,26.20
2022-10-21T07:59:25.352Z,24.87
2022-10-21T08:01:55.205Z,22.43
2022-10-21T08:04:27.414Z,29.17
2022-10-21T08:06:57.440Z,26.43
2022-10-21T08:09:27.381Z,21.87
2022-10-21T08:11:57.964Z,25.37
2022-10-21T08:14:27.683Z,23.60
2022-10-21T08:16:57.528Z,21.43
2022-10-21T08:19:28.919Z,31.07
2022-10-21T08:22:00.793Z,23.67
2022-10-21T08:24:30.542Z,24.00
2022-10-21T08:27:00.445Z,22.87
2022-10-21T08:29:30.566Z,22.32
2022-10-21T08:32:00.421Z,22.20
2022-10-21T08:34:30.168Z,19.73
2022-10-21T08:36:59.920Z,21.63
2022-10-21T08:39:29.752Z,20.57
2022-10-21T08:42:17.038Z,25.57
2022-10-21T08:44:52.422Z,23.23
2022-10-21T08:47:34.429Z,20.30
2022-10-21T08:50:19.047Z,22.30
2022-10-21T08:52:51.847Z,23.47
2022-10-21T08:55:33.327Z,18.05
2022-10-21T08:58:04.928Z,24.10
2022-10-21T09:00:40.264Z,20.63
2022-10-21T09:03:16.115Z,19.23
2022-10-21T09:05:49.140Z,19.37
2022-10-21T09:08:27.508Z,23.80
2022-10-21T09:11:05.734Z,23.10
2022-10-21T09:14:02.244Z,20.13
2022-10-21T09:16:52.483Z,17.73
2022-10-21T09:19:43.051Z,19.67
2022-10-21T09:22:39.406Z,17.84
2022-10-21T09:25:21.315Z,17.40
2022-10-21T09:27:56.747Z,17.90
2022-10-21T09:30:24.215Z,19.43
2022-10-21T09:32:59.484Z,18.40
2022-10-21T09:35:43.591Z,22.33
2022-10-21T09:38:19.480Z,15.30
2022-10-21T09:40:51.916Z,20.33
2022-10-21T09:43:24.715Z,22.40
2022-10-21T09:45:55.229Z,21.93
2022-10-21T09:49:06.927Z,16.97
2022-10-21T09:51:21.449Z,18.53
2022-10-21T09:53:57.063Z,21.73
2022-10-21T09:56:44.140Z,16.53
2022-10-21T09:59:21.226Z,23.70
2022-10-21T10:01:51.331Z,21.83
2022-10-21T10:04:26.828Z,18.12
2022-10-21T10:06:58.060Z,16.20
2022-10-21T10:09:37.422Z,17.00
2022-10-21T10:12:13.860Z,22.57
2022-10-21T10:14:46.369Z,14.13
2022-10-21T10:17:22.118Z,15.90
2022-10-21T10:20:14.842Z,19.47
2022-10-21T10:22:47.786Z,19.17
2022-10-21T10:25:24.953Z,15.77
2022-10-21T10:28:06.835Z,21.40
2022-10-21T10:30:45.234Z,16.00
2022-10-21T10:33:23.438Z,13.53
2022-10-21T10:35:58.693Z,15.43
2022-10-21T10:38:42.924Z,11.97
2022-10-21T10:41:15.408Z,13.98
2022-10-21T10:43:56.793Z,18.05
2022-10-21T10:46:32.027Z,14.10
2022-10-21T10:49:16.420Z,11.83
2022-10-21T10:51:50.923Z,13.77
2022-10-21T10:54:24.074Z,15.40
2022-10-21T10:56:58.959Z,13.33
2022-10-21T10:59:31.833Z,17.90
2022-10-21T11:02:11.404Z,13.58
2022-10-21T11:05:18.481Z,15.20
2022-10-21T11:07:52.994Z,21.73
2022-10-21T11:10:46.537Z,22.05
2022-10-21T11:13:19.347Z,18.27
2022-10-21T11:16:12.222Z,13.33
2022-10-21T11:19:11.979Z,15.00
2022-10-21T11:21:53.443Z,12.57
2022-10-21T11:24:25.953Z,14.33
2022-10-21T11:27:26.697Z,12.70
2022-10-21T11:30:05.249Z,14.03
2022-10-21T11:33:12.406Z,11.23
2022-10-21T11:35:57.809Z,11.97
2022-10-21T11:38:34.847Z,8.95
2022-10-21T11:41:27.213Z,15.60
2022-10-21T11:44:12.458Z,13.20
2022-10-21T11:47:05.749Z,13.83
2022-10-21T11:49:47.518Z,11.43
2022-10-21T11:52:45.036Z,8.97
2022-10-21T11:55:35.205Z,9.40
2022-10-21T11:58:12.053Z,10.43
2022-10-21T12:00:56.802Z,12.45
2022-10-21T12:03:29.587Z,9.07
2022-10-21T12:06:10.055Z,8.00
2022-10-21T12:08:57.514Z,12.53
2022-10-21T12:14:30.859Z,7.83
2022-10-21T12:17:01.056Z,6.43
2022-10-21T12:19:31.037Z,9.13
2022-10-21T12:22:01.417Z,8.18
2022-10-21T12:24:39.999Z,8.27
2022-10-21T12:27:18.724Z,6.87
2022-10-21T12:30:08.498Z,6.37
2022-10-21T12:33:02.349Z,5.37
2022-10-21T12:35:51.545Z,3.53
2022-10-21T12:38:44.993Z,6.37
2022-10-21T12:41:29.917Z,3.83
2022-10-21T12:44:05.359Z,9.55
2022-10-21T12:46:49.604Z,3.43
2022-10-21T12:49:32.474Z,4.17
2022-10-21T12:52:11.335Z,3.77
2022-10-21T12:54:49.730Z,5.63
2022-10-21T12:57:25.525Z,6.60
2022-10-21T13:00:14.139Z,11.43
2022-10-21T13:03:06.235Z,3.65
2022-10-21T13:05:41.752Z,4.60
2022-10-21T13:08:24.175Z,6.22
2022-10-21T13:11:08.695Z,3.17
2022-10-21T13:13:43.651Z,6.60
2022-10-21T13:16:25.109Z,9.73
2022-10-21T13:18:56.651Z,3.30
2022-10-21T13:21:32.121Z,6.72
2022-10-21T13:24:13.759Z,4.33
2022-10-21T13:27:06.427Z,6.73
2022-10-21T13:29:45.172Z,5.00
2022-10-21T13:32:21.778Z,6.47
2022-10-21T13:35:09.390Z,7.63
2022-10-21T13:37:45.284Z,4.00
2022-10-21T13:42:51.559Z,2.83
2022-10-21T13:45:27.025Z,5.20
2022-10-21T13:48:05.466Z,2.63
2022-10-21T13:50:40.607Z,2.00
2022-10-21T13:53:34.965Z,1.33
2022-10-21T13:56:09.454Z,7.60
2022-10-21T13:58:40.578Z,2.23
2022-10-21T14:01:13.663Z,3.08
2022-10-21T14:03:43.933Z,0.77
2022-10-21T14:06:26.748Z,2.10
2022-10-21T14:08:56.850Z,1.20
2022-10-21T14:11:33.435Z,2.60
2022-10-21T14:14:04.307Z,1.57
2022-10-21T14:16:36.841Z,4.57
2022-10-21T14:19:09.605Z,0.70
2022-10-21T14:21:41.928Z,1.70
2022-10-21T14:24:36.150Z,2.56
2022-10-21T14:27:07.116Z,3.03
2022-10-21T14:29:37.488Z,2.90
2022-10-21T14:32:08.869Z,3.83
2022-10-21T14:34:41.722Z,2.00
2022-10-21T14:37:14.501Z,1.17
2022-10-21T14:39:44.239Z,1.93
2022-10-21T14:42:16.830Z,1.20
2022-10-21T14:44:48.147Z,3.87
2022-10-21T14:47:26.355Z,3.57
2022-10-21T14:50:01.063Z,2.43
2022-10-21T14:52:37.109Z,2.63
2022-10-21T14:55:11.215Z,2.12
2022-10-21T14:57:49.813Z,2.93
2022-10-21T15:00:34.557Z,4.87
2022-10-21T15:03:04.455Z,2.47
2022-10-21T15:05:47.873Z,1.33
2022-10-21T15:08:29.404Z,2.53
2022-10-21T15:11:12.075Z,5.57
2022-10-21T15:13:44.858Z,2.90
2022-10-21T15:16:22.166Z,3.92
2022-10-21T15:18:53.888Z,3.03
2022-10-21T15:21:38.262Z,2.55
2022-10-21T15:24:09.990Z,5.30
2022-10-21T15:26:42.066Z,4.00
2022-10-21T15:29:23.979Z,3.25
2022-10-21T15:31:54.019Z,4.80
2022-10-21T15:34:23.532Z,4.37
2022-10-21T15:36:53.506Z,2.50
2022-10-21T15:39:23.315Z,4.60
2022-10-21T15:41:55.172Z,4.90
2022-10-21T15:44:27.671Z,3.03
2022-10-21T15:47:00.705Z,2.70
2022-10-21T15:49:37.819Z,1.50
2022-10-21T15:52:10.864Z,5.26
2022-10-21T15:54:40.694Z,6.73
2022-10-21T15:57:21.978Z,3.13
2022-10-21T15:59:51.722Z,7.17
2022-10-21T16:02:21.194Z,9.60
2022-10-21T16:04:52.741Z,8.70
2022-10-21T16:07:25.335Z,13.40
2022-10-21T16:09:55.220Z,12.37
2022-10-21T16:12:24.854Z,11.78
2022-10-21T16:14:54.976Z,13.50
2022-10-21T16:17:26.339Z,8.00
2022-10-21T16:19:56.098Z,9.73
2022-10-21T16:22:25.876Z,7.22
2022-10-21T16:24:55.696Z,8.30
2022-10-21T16:27:43.437Z,10.47
2022-10-21T16:29:57.481Z,7.93
2022-10-21T16:32:27.381Z,8.20
2022-10-21T16:34:57.128Z,3.90
2022-10-21T16:37:28.564Z,5.57
2022-10-21T16:39:58.381Z,6.57
2022-10-21T16:42:28.169Z,7.58
2022-10-21T16:44:57.957Z,7.23
2022-10-21T16:47:27.710Z,6.57
2022-10-21T16:50:00.141Z,6.25
2022-10-21T16:52:29.899Z,6.95
2022-10-21T16:54:59.930Z,9.05
2022-10-21T16:57:29.679Z,8.93
2022-10-21T16:59:59.502Z,4.70
2022-10-21T17:02:29.610Z,4.05
2022-10-21T17:04:59.373Z,6.20
2022-10-21T17:07:30.746Z,10.80
2022-10-21T17:10:01.912Z,5.40
2022-10-21T17:12:33.216Z,5.15
2022-10-21T17:15:03.661Z,8.33
2022-10-21T17:17:33.754Z,10.83
2022-10-21T17:20:03.738Z,3.93
2022-10-21T17:22:33.249Z,6.27
2022-10-21T17:25:03.052Z,5.60
2022-10-21T17:27:32.534Z,7.00
2022-10-21T17:30:02.320Z,4.90
2022-10-21T17:32:32.185Z,11.70
2022-10-21T17:35:02.053Z,6.90
2022-10-21T17:37:32.128Z,10.88
2022-10-21T17:40:01.869Z,9.27
2022-10-21T17:42:31.912Z,12.40
2022-10-21T17:45:03.797Z,9.03
2022-10-21T17:47:33.736Z,7.78
2022-10-21T17:50:04.050Z,6.85
2022-10-21T17:52:33.893Z,7.53
2022-10-21T17:55:04.423Z,8.10
2022-10-21T17:57:34.614Z,9.98
2022-10-21T18:00:06.434Z,17.60
2022-10-21T18:02:38.354Z,19.30
2022-10-21T18:05:10.568Z,16.60
2022-10-21T18:07:41.033Z,9.78
2022-10-21T18:10:10.929Z,15.05
2022-10-21T18:12:40.950Z,9.70
2022-10-21T18:15:11.052Z,8.57
2022-10-21T18:17:41.398Z,6.70
2022-10-21T18:20:13.786Z,8.40
2022-10-21T18:22:43.542Z,7.37
2022-10-21T18:25:13.108Z,9.10
2022-10-21T18:30:12.932Z,7.00
2022-10-21T18:32:43.018Z,14.57
2022-10-21T18:35:12.689Z,14.70
2022-10-21T18:37:43.409Z,8.70
2022-10-21T18:40:15.456Z,6.70
2022-10-21T18:42:45.923Z,5.90
2022-10-21T18:45:15.627Z,5.17
2022-10-21T18:47:47.041Z,6.63
2022-10-21T18:50:17.637Z,5.95
2022-10-21T18:52:47.240Z,10.53
2022-10-21T18:55:16.998Z,4.53
2022-10-21T18:57:46.795Z,6.87
2022-10-21T19:00:16.587Z,5.77
2022-10-21T19:02:46.339Z,4.77
2022-10-21T19:05:15.855Z,5.53
2022-10-21T19:07:45.844Z,6.83
2022-10-21T19:10:15.633Z,6.93
2022-10-21T19:12:45.669Z,4.90
2022-10-21T19:15:15.371Z,5.07
2022-10-21T19:17:45.144Z,8.70
2022-10-21T19:20:17.407Z,5.60
2022-10-21T19:22:47.702Z,5.60
2022-10-21T19:25:17.963Z,5.05
2022-10-21T19:27:47.771Z,4.00
2022-10-21T19:30:18.806Z,6.28
2022-10-21T19:32:48.825Z,6.30
2022-10-21T19:35:18.997Z,8.10
2022-10-21T19:37:48.718Z,6.57
2022-10-21T19:40:18.254Z,4.95
2022-10-21T19:42:48.162Z,4.33
2022-10-21T19:45:18.109Z,5.92
2022-10-21T19:47:47.656Z,8.90
2022-10-21T19:50:18.081Z,4.65
2022-10-21T19:52:47.826Z,5.43
2022-10-21T19:55:19.062Z,5.45
2022-10-21T19:57:49.091Z,6.15
2022-10-21T20:00:18.609Z,3.87
2022-10-21T20:02:48.647Z,7.12
2022-10-21T20:05:18.320Z,6.87
2022-10-21T20:07:48.134Z,7.97
2022-10-21T20:10:19.587Z,4.47
2022-10-21T20:12:49.057Z,10.40
2022-10-21T20:15:19.030Z,5.17
2022-10-21T20:17:48.979Z,4.17
2022-10-21T20:20:18.683Z,6.78
2022-10-21T20:22:48.749Z,7.87
2022-10-21T20:25:18.985Z,5.25
2022-10-21T20:27:49.010Z,6.85
2022-10-21T20:30:19.148Z,5.05
2022-10-21T20:32:50.823Z,9.30
2022-10-21T20:35:21.152Z,3.10
2022-10-21T20:37:51.217Z,5.70
2022-10-21T20:40:20.921Z,4.93
2022-10-21T20:42:51.004Z,6.35
2022-10-21T20:45:21.173Z,6.03
2022-10-21T20:47:50.677Z,7.00
2022-10-21T20:50:20.110Z,9.17
2022-10-21T20:52:50.225Z,5.17
2022-10-21T20:55:20.121Z,9.93
2022-10-21T20:57:50.152Z,6.33
2022-10-21T21:00:19.942Z,4.97
2022-10-21T21:02:49.756Z,4.77
2022-10-21T21:05:19.851Z,5.65
2022-10-21T21:07:49.608Z,5.23
2022-10-21T21:10:19.344Z,5.97
2022-10-21T21:12:49.117Z,4.10
2022-10-21T21:15:18.890Z,8.08
2022-10-21T21:17:51.922Z,5.80
2022-10-21T21:20:21.349Z,5.37
2022-10-21T21:22:51.113Z,3.30
2022-10-21T21:25:20.855Z,6.62
2022-10-21T21:27:50.888Z,5.58
2022-10-21T21:30:20.995Z,5.72
2022-10-21T21:32:50.717Z,5.37
2022-10-21T21:35:20.457Z,4.70
2022-10-21T21:37:50.262Z,8.53
2022-10-21T21:40:20.301Z,9.06
2022-10-21T21:42:50.032Z,5.13
2022-10-21T21:45:19.487Z,4.83
2022-10-21T21:47:49.243Z,7.80
2022-10-21T21:50:19.334Z,8.20
2022-10-21T21:52:49.361Z,5.55
2022-10-21T21:55:19.468Z,3.43
2022-10-21T21:57:49.201Z,5.33
2022-10-21T22:00:18.912Z,7.35
2022-10-21T22:02:48.662Z,5.80
2022-10-21T22:05:22.470Z,5.15
2022-10-21T22:07:51.365Z,4.35
2022-10-21T22:10:21.111Z,7.67
2022-10-21T22:12:51.167Z,6.55
2022-10-21T22:15:43.362Z,10.80
2022-10-21T22:17:53.778Z,10.32
2022-10-21T22:20:23.653Z,7.57
2022-10-21T22:22:53.443Z,6.37
2022-10-21T22:25:22.894Z,5.93
2022-10-21T22:27:52.936Z,8.83
2022-10-21T22:30:22.710Z,6.22
2022-10-21T22:32:52.754Z,7.65
2022-10-21T22:35:22.190Z,8.30
2022-10-21T22:37:52.262Z,5.50
2022-10-21T22:40:21.860Z,4.58
2022-10-21T22:42:51.665Z,6.63
2022-10-21T22:45:21.394Z,5.25
2022-10-21T22:47:51.438Z,9.23
2022-10-21T22:50:21.526Z,6.17
2022-10-21T22:52:51.278Z,6.60
2022-10-21T22:55:21.112Z,7.22
2022-10-21T22:57:50.922Z,12.97
2022-10-21T23:00:20.657Z,10.93
2022-10-21T23:02:50.505Z,7.33
2022-10-21T23:05:19.947Z,10.60
2022-10-21T23:07:49.901Z,7.80
2022-10-21T23:10:23.316Z,6.03
2022-10-21T23:12:53.080Z,9.90
2022-10-21T23:15:22.768Z,7.17
2022-10-21T23:17:52.540Z,6.47
2022-10-21T23:20:22.259Z,9.50
2022-10-21T23:22:52.010Z,6.30
2022-10-21T23:25:22.897Z,8.10
2022-10-21T23:27:52.712Z,10.73
2022-10-21T23:30:22.474Z,10.97
2022-10-21T23:32:52.310Z,6.23
2022-10-21T23:35:23.677Z,6.67
2022-10-21T23:37:53.427Z,8.43
2022-10-21T23:40:23.190Z,11.63
2022-10-21T23:42:53.229Z,10.43
2022-10-21T23:45:22.962Z,6.30
2022-10-21T23:47:53.098Z,7.87
2022-10-21T23:50:23.067Z,9.60
2022-10-21T23:52:52.522Z,7.90
2022-10-21T23:55:22.026Z,12.50
2022-10-21T23:57:51.822Z,9.97
